createdAt,value
2023-08-26T00:02:14.004Z,2.63
2023-08-26T00:04:40.709Z,2.80
2023-08-26T00:07:07.744Z,2.78
2023-08-26T00:09:34.490Z,2.50
2023-08-26T00:12:01.242Z,2.00
2023-08-26T00:14:27.995Z,1.95
2023-08-26T00:16:54.727Z,2.40
2023-08-26T00:19:21.890Z,2.03
2023-08-26T00:21:49.196Z,2.25
2023-08-26T00:24:15.972Z,2.10
2023-08-26T00:26:42.815Z,2.38
2023-08-26T00:29:09.639Z,2.40
2023-08-26T00:31:36.467Z,2.13
2023-08-26T00:34:04.833Z,2.55
2023-08-26T00:36:32.045Z,2.47
2023-08-26T00:38:59.310Z,2.80
2023-08-26T00:41:26.609Z,2.70
2023-08-26T00:43:53.397Z,2.70
2023-08-26T00:46:21.812Z,2.80
2023-08-26T00:48:48.804Z,2.97
2023-08-26T00:51:16.635Z,2.70
2023-08-26T00:53:43.408Z,3.20
2023-08-26T00:56:10.381Z,3.33
2023-08-26T00:58:37.792Z,3.35
2023-08-26T01:01:05.018Z,3.60
2023-08-26T01:03:32.424Z,3.83
2023-08-26T01:06:11.166Z,3.33
2023-08-26T01:17:16.629Z,3.70
2023-08-26T01:24:37.872Z,3.88
2023-08-26T01:40:40.276Z,3.78
2023-08-26T01:50:21.137Z,3.70
2023-08-26T01:52:47.884Z,3.80
2023-08-26T01:55:14.678Z,4.20
2023-08-26T01:57:41.432Z,4.38
2023-08-26T02:00:09.139Z,4.18
2023-08-26T02:02:38.787Z,4.53
2023-08-26T02:05:05.861Z,4.22
2023-08-26T02:07:32.535Z,4.00
2023-08-26T02:09:59.245Z,4.00
2023-08-26T02:12:25.908Z,3.53
2023-08-26T02:14:52.635Z,3.97
2023-08-26T02:17:19.370Z,4.80
2023-08-26T02:19:46.717Z,4.22
2023-08-26T02:22:13.467Z,4.03
2023-08-26T02:24:40.239Z,4.32
2023-08-26T02:27:06.971Z,4.07
2023-08-26T02:29:33.720Z,4.55
2023-08-26T02:32:00.551Z,4.57
2023-08-26T02:34:27.387Z,4.13
2023-08-26T02:36:54.214Z,4.53
2023-08-26T02:39:20.946Z,4.07
2023-08-26T02:41:47.663Z,4.15
2023-08-26T02:44:14.419Z,3.95
2023-08-26T02:46:41.437Z,4.45
2023-08-26T02:49:08.336Z,4.18
2023-08-26T02:51:35.130Z,4.30
2023-08-26T02:54:01.833Z,4.10
2023-08-26T02:56:28.550Z,3.90
2023-08-26T02:58:55.312Z,3.63
2023-08-26T03:01:22.090Z,3.90
2023-08-26T03:03:48.997Z,3.78
2023-08-26T03:06:17.993Z,3.28
2023-08-26T03:08:44.757Z,3.67
2023-08-26T03:11:11.564Z,4.05
2023-08-26T03:13:38.331Z,3.83
2023-08-26T03:16:10.619Z,3.38
2023-08-26T03:18:37.985Z,3.90
2023-08-26T03:21:05.976Z,3.50
2023-08-26T03:23:33.127Z,3.38
2023-08-26T03:26:00.200Z,3.50
2023-08-26T03:28:27.238Z,3.63
2023-08-26T03:30:54.062Z,3.42
2023-08-26T03:33:20.816Z,3.80
2023-08-26T03:35:47.575Z,3.50
2023-08-26T03:38:14.310Z,3.33
2023-08-26T03:40:44.226Z,3.55
2023-08-26T03:43:11.338Z,3.55
2023-08-26T03:45:40.219Z,3.15
2023-08-26T03:48:07.274Z,3.42
2023-08-26T03:50:34.064Z,3.13
2023-08-26T03:53:00.838Z,3.63
2023-08-26T03:55:28.010Z,3.20
2023-08-26T03:57:54.983Z,3.72
2023-08-26T04:00:21.904Z,3.45
2023-08-26T04:02:48.646Z,2.97
2023-08-26T04:05:15.487Z,3.40
2023-08-26T04:07:43.047Z,3.75
2023-08-26T04:10:10.293Z,3.35
2023-08-26T04:12:37.044Z,4.38
2023-08-26T04:15:05.776Z,3.45
2023-08-26T04:17:32.586Z,3.17
2023-08-26T04:20:00.281Z,3.90
2023-08-26T04:22:27.252Z,3.15
2023-08-26T04:24:54.194Z,4.10
2023-08-26T04:27:20.998Z,3.88
2023-08-26T04:29:47.825Z,3.50
2023-08-26T04:32:14.637Z,3.05
2023-08-26T04:34:43.564Z,3.00
2023-08-26T04:37:10.355Z,3.72
2023-08-26T04:39:38.405Z,3.63
2023-08-26T04:42:05.704Z,4.10
2023-08-26T04:44:32.492Z,4.05
2023-08-26T04:46:59.256Z,3.75
2023-08-26T04:49:26.158Z,3.92
2023-08-26T04:51:54.252Z,3.88
2023-08-26T04:54:21.136Z,3.70
2023-08-26T04:56:48.150Z,3.47
2023-08-26T04:59:14.907Z,3.50
2023-08-26T05:01:41.853Z,3.63
2023-08-26T05:04:08.698Z,3.55
2023-08-26T05:06:35.736Z,3.63
2023-08-26T05:09:02.462Z,3.65
2023-08-26T05:11:29.194Z,3.78
2023-08-26T05:13:55.998Z,3.25
2023-08-26T05:16:22.743Z,3.28
2023-08-26T05:18:52.448Z,2.75
2023-08-26T05:21:20.691Z,2.83
2023-08-26T05:23:47.412Z,3.08
2023-08-26T05:26:14.117Z,2.72
2023-08-26T05:28:40.808Z,2.65
2023-08-26T05:31:07.630Z,3.20
2023-08-26T05:33:34.512Z,2.97
2023-08-26T05:36:01.519Z,3.10
2023-08-26T05:38:28.266Z,3.25
2023-08-26T05:40:54.984Z,2.80
2023-08-26T05:43:21.831Z,3.00
2023-08-26T05:45:48.594Z,2.97
2023-08-26T05:48:15.584Z,3.20
2023-08-26T05:50:42.390Z,2.88
2023-08-26T05:53:09.172Z,2.60
2023-08-26T05:55:35.910Z,2.90
2023-08-26T05:58:02.768Z,2.83
2023-08-26T06:00:29.610Z,2.90
2023-08-26T06:02:56.433Z,2.90
2023-08-26T06:05:23.317Z,2.70
2023-08-26T06:07:52.919Z,2.70
2023-08-26T06:10:20.192Z,3.10
2023-08-26T06:12:47.007Z,3.22
2023-08-26T06:15:13.739Z,3.10
2023-08-26T06:17:52.038Z,3.22
2023-08-26T06:20:18.897Z,3.35
2023-08-26T06:22:47.064Z,2.90
2023-08-26T06:25:13.899Z,3.30
2023-08-26T06:27:42.005Z,3.10
2023-08-26T06:30:10.147Z,3.08
2023-08-26T06:32:37.129Z,2.70
2023-08-26T06:35:05.764Z,2.65
2023-08-26T06:37:32.504Z,3.10
2023-08-26T06:39:59.714Z,3.55
2023-08-26T06:42:26.601Z,3.20
2023-08-26T06:44:55.592Z,2.28
2023-08-26T06:47:22.431Z,2.70
2023-08-26T06:49:49.238Z,2.22
2023-08-26T06:52:16.033Z,1.90
2023-08-26T06:54:42.805Z,2.42
2023-08-26T06:57:09.614Z,2.20
2023-08-26T06:59:36.397Z,2.35
2023-08-26T07:02:04.026Z,2.30
2023-08-26T07:04:30.780Z,1.80
2023-08-26T07:06:57.545Z,1.88
2023-08-26T07:09:24.329Z,2.20
2023-08-26T07:11:51.130Z,1.65
2023-08-26T07:14:17.898Z,1.80
2023-08-26T07:16:44.686Z,1.70
2023-08-26T07:19:11.470Z,1.60
2023-08-26T07:21:38.288Z,1.60
2023-08-26T07:24:05.159Z,2.22
2023-08-26T07:26:32.022Z,1.92
2023-08-26T07:28:58.688Z,1.90
2023-08-26T07:31:25.426Z,1.52
2023-08-26T07:33:52.156Z,1.50
2023-08-26T07:36:18.978Z,1.38
2023-08-26T07:38:45.934Z,1.73
2023-08-26T07:41:12.736Z,1.23
2023-08-26T07:43:39.543Z,1.50
2023-08-26T07:48:37.904Z,1.40
2023-08-26T07:51:05.030Z,1.58
2023-08-26T07:53:31.803Z,1.70
2023-08-26T07:55:58.538Z,1.60
2023-08-26T07:58:25.281Z,1.50
2023-08-26T08:00:52.365Z,1.48
2023-08-26T08:03:19.246Z,1.30
2023-08-26T08:05:46.367Z,1.33
2023-08-26T08:08:13.153Z,1.60
2023-08-26T08:10:39.900Z,1.40
2023-08-26T08:13:06.944Z,1.10
2023-08-26T08:15:33.855Z,1.50
2023-08-26T08:18:00.694Z,1.25
2023-08-26T08:20:27.646Z,1.05
2023-08-26T08:22:56.635Z,1.20
2023-08-26T08:25:23.851Z,1.40
2023-08-26T08:27:50.653Z,1.40
2023-08-26T08:30:17.542Z,1.63
2023-08-26T08:32:44.320Z,1.33
2023-08-26T08:35:11.389Z,1.33
2023-08-26T08:37:38.594Z,1.70
2023-08-26T08:40:06.602Z,1.38
2023-08-26T08:42:37.705Z,1.40
2023-08-26T08:45:05.224Z,1.48
2023-08-26T08:47:32.815Z,1.27
2023-08-26T08:50:01.189Z,1.65
2023-08-26T08:52:29.230Z,1.63
2023-08-26T08:54:56.128Z,1.75
2023-08-26T08:57:27.934Z,1.50
2023-08-26T08:59:58.454Z,1.05
2023-08-26T09:02:27.887Z,1.38
2023-08-26T09:04:55.236Z,1.65
2023-08-26T09:07:22.501Z,1.20
2023-08-26T09:10:00.044Z,0.93
2023-08-26T09:12:28.351Z,1.25
2023-08-26T09:14:55.102Z,1.33
2023-08-26T09:17:22.190Z,1.30
2023-08-26T09:20:00.059Z,1.10
2023-08-26T09:22:28.591Z,1.38
2023-08-26T09:25:08.554Z,1.00
2023-08-26T09:27:41.807Z,1.15
2023-08-26T09:30:09.374Z,0.90
2023-08-26T09:32:42.086Z,1.23
2023-08-26T09:36:30.245Z,1.20
2023-08-26T09:38:06.271Z,1.42
2023-08-26T09:40:33.781Z,1.27
2023-08-26T09:43:04.624Z,1.13
2023-08-26T09:45:37.608Z,1.38
2023-08-26T09:48:04.910Z,1.42
2023-08-26T09:50:32.742Z,2.30
2023-08-26T09:52:59.712Z,1.70
2023-08-26T09:55:26.543Z,1.20
2023-08-26T09:57:54.321Z,1.60
2023-08-26T10:00:22.082Z,1.48
2023-08-26T10:02:50.782Z,1.40
2023-08-26T10:05:21.056Z,0.95
2023-08-26T10:07:49.788Z,1.20
2023-08-26T10:10:25.530Z,1.58
2023-08-26T10:12:57.264Z,1.45
2023-08-26T10:15:26.774Z,1.40
2023-08-26T10:17:54.893Z,1.40
2023-08-26T10:20:22.579Z,1.30
2023-08-26T10:22:49.533Z,1.05
2023-08-26T10:25:17.415Z,1.17
2023-08-26T10:27:45.190Z,1.27
2023-08-26T10:30:12.093Z,1.27
2023-08-26T10:32:45.995Z,1.40
2023-08-26T10:35:14.702Z,1.70
2023-08-26T10:37:41.814Z,0.90
2023-08-26T10:40:10.627Z,1.35
2023-08-26T10:42:38.178Z,1.30
2023-08-26T10:45:14.660Z,1.55
2023-08-26T10:47:46.442Z,1.63
2023-08-26T10:50:27.533Z,1.17
2023-08-26T10:53:00.150Z,1.20
2023-08-26T10:55:28.772Z,1.38
2023-08-26T10:58:14.770Z,1.60
2023-08-26T11:00:47.021Z,1.50
2023-08-26T11:03:16.012Z,1.58
2023-08-26T11:05:45.318Z,1.33
2023-08-26T11:08:12.983Z,1.60
2023-08-26T11:10:41.781Z,1.58
2023-08-26T11:13:10.592Z,1.42
2023-08-26T11:15:40.110Z,1.08
2023-08-26T11:18:08.604Z,1.45
2023-08-26T11:20:35.964Z,1.58
2023-08-26T11:23:04.162Z,1.52
2023-08-26T11:25:31.060Z,1.05
2023-08-26T11:28:05.258Z,1.52
2023-08-26T11:30:36.835Z,1.70
2023-08-26T11:33:14.202Z,1.10
2023-08-26T11:35:45.215Z,1.30
2023-08-26T11:38:17.454Z,1.30
2023-08-26T11:40:44.609Z,1.20
2023-08-26T11:43:13.462Z,1.30
2023-08-26T11:45:42.106Z,1.88
2023-08-26T11:48:12.615Z,1.77
2023-08-26T11:50:41.046Z,9.90
2023-08-26T11:53:08.115Z,9.85
2023-08-26T11:55:36.171Z,3.28
2023-08-26T11:58:04.759Z,3.78
2023-08-26T12:00:33.056Z,2.63
2023-08-26T12:03:05.499Z,1.50
2023-08-26T12:05:43.506Z,1.77
2023-08-26T12:08:15.269Z,1.52
2023-08-26T12:10:42.583Z,1.80
2023-08-26T12:13:09.426Z,1.80
2023-08-26T12:15:40.412Z,1.65
2023-08-26T12:18:07.445Z,1.75
2023-08-26T12:20:34.285Z,1.75
2023-08-26T12:23:05.824Z,1.60
2023-08-26T12:25:36.632Z,1.73
2023-08-26T12:28:11.531Z,1.85
2023-08-26T12:30:38.751Z,1.60
2023-08-26T12:33:08.161Z,1.70
2023-08-26T12:35:38.041Z,1.73
2023-08-26T12:38:05.438Z,1.83
2023-08-26T12:40:33.758Z,2.00
2023-08-26T12:43:05.398Z,2.53
2023-08-26T12:45:33.465Z,2.33
2023-08-26T12:48:01.702Z,2.30
2023-08-26T12:50:28.701Z,3.10
2023-08-26T12:52:56.332Z,3.15
2023-08-26T12:55:23.786Z,3.35
2023-08-26T12:57:50.608Z,2.67
2023-08-26T13:00:17.757Z,2.90
2023-08-26T13:02:46.050Z,2.78
2023-08-26T13:05:13.150Z,2.88
2023-08-26T13:07:40.788Z,2.58
2023-08-26T13:10:08.467Z,2.90
2023-08-26T13:12:35.283Z,4.65
2023-08-26T13:15:02.077Z,4.10
2023-08-26T13:17:28.904Z,2.85
2023-08-26T13:19:59.620Z,2.53
2023-08-26T13:22:30.896Z,2.63
2023-08-26T13:24:58.927Z,2.22
2023-08-26T13:27:25.694Z,1.92
2023-08-26T13:29:52.456Z,2.17
2023-08-26T13:32:19.231Z,2.15
2023-08-26T13:34:46.215Z,2.50
2023-08-26T13:37:12.889Z,1.83
2023-08-26T13:39:39.619Z,2.20
2023-08-26T13:42:08.523Z,1.90
2023-08-26T13:44:35.306Z,1.98
2023-08-26T13:47:02.176Z,2.30
2023-08-26T13:49:29.009Z,2.25
2023-08-26T13:51:55.754Z,1.90
2023-08-26T13:54:23.413Z,2.75
2023-08-26T13:56:50.195Z,2.10
2023-08-26T13:59:18.915Z,2.05
2023-08-26T14:01:45.667Z,2.00
2023-08-26T14:04:12.412Z,1.98
2023-08-26T14:06:39.538Z,1.98
2023-08-26T14:09:06.425Z,2.35
2023-08-26T14:11:33.462Z,2.33
2023-08-26T14:14:00.236Z,2.20
2023-08-26T14:16:28.382Z,2.03
2023-08-26T14:18:55.206Z,2.38
2023-08-26T14:21:22.019Z,1.85
2023-08-26T14:23:48.853Z,2.33
2023-08-26T14:26:15.815Z,2.25
2023-08-26T14:28:42.530Z,1.88
2023-08-26T14:31:09.316Z,2.38
2023-08-26T14:33:37.351Z,1.90
2023-08-26T14:36:04.800Z,2.20
2023-08-26T14:38:31.820Z,2.17
2023-08-26T14:40:58.784Z,1.92
2023-08-26T14:43:25.814Z,1.77
2023-08-26T14:45:52.719Z,1.95
2023-08-26T14:48:19.702Z,1.83
2023-08-26T14:50:46.458Z,1.92
2023-08-26T14:53:13.203Z,1.88
2023-08-26T14:55:42.363Z,2.20
2023-08-26T14:58:10.574Z,2.15
2023-08-26T15:00:38.772Z,2.22
2023-08-26T15:03:06.433Z,2.08
2023-08-26T15:05:33.407Z,2.00
2023-08-26T15:08:00.511Z,1.73
2023-08-26T15:10:27.461Z,2.15
2023-08-26T15:12:54.416Z,1.90
2023-08-26T15:15:21.118Z,1.80
2023-08-26T15:17:47.935Z,1.95
2023-08-26T15:20:14.686Z,1.80
2023-08-26T15:22:41.640Z,2.20
2023-08-26T15:25:08.797Z,1.70
2023-08-26T15:27:35.522Z,2.30
2023-08-26T15:30:03.571Z,2.30
2023-08-26T15:32:30.645Z,2.10
2023-08-26T15:34:57.741Z,2.20
2023-08-26T15:37:25.304Z,2.58
2023-08-26T15:39:52.116Z,2.08
2023-08-26T15:42:18.849Z,2.38
2023-08-26T15:44:45.671Z,2.55
2023-08-26T15:47:12.334Z,2.33
2023-08-26T15:49:39.116Z,2.50
2023-08-26T15:52:06.149Z,2.58
2023-08-26T15:54:33.134Z,2.60
2023-08-26T15:57:00.079Z,2.28
2023-08-26T15:59:26.836Z,2.55
2023-08-26T16:01:56.690Z,2.13
2023-08-26T16:04:24.212Z,2.28
2023-08-26T16:06:51.244Z,2.30
2023-08-26T16:09:18.042Z,2.65
2023-08-26T16:11:44.917Z,2.80
2023-08-26T16:14:11.800Z,2.28
2023-08-26T16:16:38.816Z,2.80
2023-08-26T16:19:05.606Z,2.50
2023-08-26T16:21:32.413Z,2.17
2023-08-26T16:23:59.156Z,2.17
2023-08-26T16:26:25.913Z,2.28
2023-08-26T16:28:52.672Z,2.40
2023-08-26T16:31:19.478Z,2.97
2023-08-26T16:33:46.374Z,2.92
2023-08-26T16:36:13.206Z,2.95
2023-08-26T16:38:39.924Z,2.88
2023-08-26T16:41:06.629Z,2.75
2023-08-26T16:43:33.392Z,3.70
2023-08-26T16:46:00.287Z,3.55
2023-08-26T16:48:27.151Z,3.40
2023-08-26T16:50:58.452Z,3.03
2023-08-26T16:53:25.758Z,3.03
2023-08-26T16:55:52.958Z,3.17
2023-08-26T16:58:20.144Z,3.25
2023-08-26T17:00:47.024Z,3.28
2023-08-26T17:03:14.188Z,3.00
2023-08-26T17:05:47.776Z,2.80
2023-08-26T17:08:14.678Z,2.63
2023-08-26T17:10:41.432Z,2.85
2023-08-26T17:13:08.233Z,3.00
2023-08-26T17:15:35.826Z,3.10
2023-08-26T17:18:02.678Z,2.60
2023-08-26T17:20:29.439Z,2.70
2023-08-26T17:22:56.568Z,2.65
2023-08-26T17:25:23.552Z,2.47
2023-08-26T17:27:50.300Z,2.45
2023-08-26T17:30:17.126Z,2.80
2023-08-26T17:32:48.423Z,2.40
2023-08-26T17:35:16.006Z,2.80
2023-08-26T17:37:42.748Z,2.35
2023-08-26T17:40:09.851Z,2.50
2023-08-26T17:42:37.453Z,2.30
2023-08-26T17:45:04.573Z,2.58
2023-08-26T17:47:31.383Z,2.50
2023-08-26T17:49:58.140Z,2.20
2023-08-26T17:52:24.880Z,2.08
2023-08-26T17:54:53.920Z,2.55
2023-08-26T17:57:20.724Z,2.22
2023-08-26T17:59:47.487Z,2.20
2023-08-26T18:02:14.356Z,2.63
2023-08-26T18:04:41.076Z,2.50
2023-08-26T18:07:07.803Z,2.58
2023-08-26T18:09:35.625Z,2.65
2023-08-26T18:12:02.528Z,2.28
2023-08-26T18:14:29.335Z,2.75
2023-08-26T18:16:56.095Z,2.40
2023-08-26T18:19:22.851Z,2.30
2023-08-26T18:21:49.616Z,2.63
2023-08-26T18:24:16.394Z,2.10
2023-08-26T18:26:43.154Z,2.55
2023-08-26T18:29:09.882Z,3.00
2023-08-26T18:31:36.668Z,2.50
2023-08-26T18:34:05.729Z,2.42
2023-08-26T18:36:32.471Z,2.42
2023-08-26T18:38:59.220Z,2.38
2023-08-26T18:41:25.947Z,2.45
2023-08-26T18:43:52.713Z,2.08
2023-08-26T18:46:19.800Z,2.60
2023-08-26T18:48:46.584Z,2.75
2023-08-26T18:51:13.307Z,2.10
2023-08-26T18:53:40.795Z,2.17
2023-08-26T18:56:08.298Z,2.33
2023-08-26T18:58:34.990Z,2.63
2023-08-26T19:01:01.799Z,2.53
2023-08-26T19:03:28.744Z,2.38
2023-08-26T19:05:55.566Z,2.75
2023-08-26T19:08:22.379Z,2.50
2023-08-26T19:10:49.210Z,2.80
2023-08-26T19:13:16.012Z,2.47
2023-08-26T19:15:42.964Z,2.35
2023-08-26T19:18:09.861Z,3.05
2023-08-26T19:20:38.285Z,2.78
2023-08-26T19:23:05.920Z,2.95
2023-08-26T19:25:33.264Z,3.13
2023-08-26T19:28:00.101Z,3.03
2023-08-26T19:30:26.910Z,2.83
2023-08-26T19:32:55.738Z,2.55
2023-08-26T19:35:23.147Z,2.40
2023-08-26T19:37:50.734Z,2.53
2023-08-26T19:40:17.857Z,2.78
2023-08-26T19:42:44.783Z,2.35
2023-08-26T19:45:12.143Z,2.55
2023-08-26T19:47:39.393Z,2.35
2023-08-26T19:50:07.251Z,2.70
2023-08-26T19:52:34.689Z,2.40
2023-08-26T19:55:03.806Z,2.60
2023-08-26T19:57:30.743Z,2.85
2023-08-26T19:59:57.914Z,2.75
2023-08-26T20:02:24.803Z,2.50
2023-08-26T20:04:51.586Z,2.60
2023-08-26T20:07:18.393Z,2.80
2023-08-26T20:09:45.240Z,2.55
2023-08-26T20:12:12.099Z,2.58
2023-08-26T20:14:40.062Z,2.60
2023-08-26T20:17:06.943Z,3.25
2023-08-26T20:19:35.400Z,2.67
2023-08-26T20:22:03.780Z,3.20
2023-08-26T20:24:32.274Z,3.33
2023-08-26T20:26:59.144Z,2.83
2023-08-26T20:29:26.014Z,3.10
2023-08-26T20:31:54.041Z,3.20
2023-08-26T20:34:21.002Z,3.10
2023-08-26T20:36:51.129Z,2.90
2023-08-26T20:39:17.873Z,2.88
2023-08-26T20:41:45.508Z,2.95
2023-08-26T20:44:12.546Z,2.80
2023-08-26T20:46:39.384Z,2.70
2023-08-26T20:49:06.441Z,2.92
2023-08-26T20:51:33.162Z,2.83
2023-08-26T20:53:59.903Z,2.80
2023-08-26T20:56:27.446Z,2.63
2023-08-26T20:58:54.921Z,2.55
2023-08-26T21:01:22.110Z,2.53
2023-08-26T21:03:49.507Z,2.42
2023-08-26T21:06:16.477Z,2.80
2023-08-26T21:08:44.121Z,2.80
2023-08-26T21:11:10.874Z,2.80
2023-08-26T21:13:39.689Z,2.65
2023-08-26T21:16:07.019Z,3.65
2023-08-26T21:18:34.279Z,2.75
2023-08-26T21:21:01.297Z,2.78
2023-08-26T21:23:28.343Z,2.60
2023-08-26T21:25:56.033Z,2.97
2023-08-26T21:28:25.896Z,3.00
2023-08-26T21:30:53.811Z,3.08
2023-08-26T21:33:21.640Z,3.05
2023-08-26T21:35:49.388Z,3.00
2023-08-26T21:38:16.557Z,3.15
2023-08-26T21:40:44.088Z,3.10
2023-08-26T21:43:14.044Z,2.70
2023-08-26T21:45:41.201Z,2.83
2023-08-26T21:48:08.465Z,2.72
2023-08-26T21:50:42.269Z,3.40
2023-08-26T21:53:09.247Z,2.90
2023-08-26T21:55:36.265Z,3.20
2023-08-26T21:58:05.246Z,3.40
2023-08-26T22:00:33.247Z,3.10
2023-08-26T22:03:00.404Z,3.33
2023-08-26T22:05:32.549Z,2.95
2023-08-26T22:08:00.520Z,2.95
2023-08-26T22:10:27.793Z,3.75
2023-08-26T22:12:56.420Z,3.38
2023-08-26T22:15:25.100Z,3.22
2023-08-26T22:17:52.372Z,3.30
2023-08-26T22:20:19.287Z,3.05
2023-08-26T22:22:47.081Z,3.45
2023-08-26T22:25:14.115Z,3.30
2023-08-26T22:27:42.087Z,3.08
2023-08-26T22:30:09.607Z,3.22
2023-08-26T22:32:37.297Z,3.28
2023-08-26T22:35:04.788Z,3.22
2023-08-26T22:37:35.737Z,2.92
2023-08-26T22:40:06.917Z,2.95
2023-08-26T22:42:34.667Z,2.55
2023-08-26T22:45:02.144Z,3.25
2023-08-26T22:47:29.571Z,2.85
2023-08-26T22:49:59.837Z,3.15
2023-08-26T22:52:26.556Z,3.30
2023-08-26T22:54:53.312Z,3.10
2023-08-26T22:57:20.443Z,3.28
2023-08-26T22:59:47.183Z,3.33
2023-08-26T23:02:13.996Z,3.10
2023-08-26T23:04:41.834Z,2.90
2023-08-26T23:07:09.747Z,3.13
2023-08-26T23:09:36.808Z,3.30
2023-08-26T23:12:05.288Z,3.53
2023-08-26T23:14:32.292Z,3.25
2023-08-26T23:16:59.266Z,2.90
2023-08-26T23:19:26.096Z,3.20
2023-08-26T23:21:57.149Z,2.92
2023-08-26T23:24:24.040Z,3.50
2023-08-26T23:26:52.192Z,3.08
2023-08-26T23:29:19.055Z,3.63
2023-08-26T23:31:46.074Z,3.05
2023-08-26T23:34:18.596Z,3.30
2023-08-26T23:36:47.127Z,3.53
2023-08-26T23:39:14.635Z,3.30
2023-08-26T23:41:42.181Z,3.33
2023-08-26T23:44:09.372Z,3.13
2023-08-26T23:46:36.701Z,3.67
2023-08-26T23:49:03.905Z,3.33
2023-08-26T23:51:30.821Z,3.63
2023-08-26T23:53:57.950Z,3.13
2023-08-26T23:56:24.729Z,3.45
2023-08-26T23:58:52.031Z,3.65
